Time;durP1;ratioP1;P1;durP2;ratioP2;P2;SDS_P1;SDS_P2;PMS_P1;PMS_P2;Temp;Humidity;BMP_temperature;BMP_pressure;BME280_temperature;BME280_humidity;BME280_pressure;Samples;Min_cycle;Max_cycle;Signal;HPM_P1;HPM_P2
2023/06/01 05:00:35;;;;;;;5.00;3.77;;;17.30;97.20;;;;;;1727056;28;20202;-69
2023/06/01 05:01:29;;;;;;;5.32;3.78;;;17.40;97.20;;;;;;1726623;28;21415;-69
2023/06/01 05:02:21;;;;;;;4.85;3.60;;;17.40;97.20;;;;;;1726992;28;20255;-69
2023/06/01 05:03:12;;;;;;;5.90;3.95;;;17.40;97.20;;;;;;1727061;28;20274;-69
2023/06/01 05:04:03;;;;;;;6.00;4.10;;;17.40;97.20;;;;;;1727081;28;20212;-69
2023/06/01 05:04:55;;;;;;;5.60;4.38;;;17.40;97.20;;;;;;1727024;28;20443;-69
2023/06/01 05:05:46;;;;;;;6.65;3.50;;;17.50;97.20;;;;;;1726254;28;20267;-69
2023/06/01 05:06:37;;;;;;;4.60;3.92;;;17.50;97.20;;;;;;1726601;28;20200;-69
2023/06/01 05:07:29;;;;;;;4.10;3.50;;;17.50;97.20;;;;;;1726338;28;20215;-69
2023/06/01 05:08:19;;;;;;;6.53;3.88;;;17.50;97.20;;;;;;1726312;28;20201;-69
2023/06/01 05:09:13;;;;;;;5.63;3.27;;;17.50;97.20;;;;;;1726463;28;20283;-69
2023/06/01 05:10:05;;;;;;;5.38;3.75;;;17.50;97.20;;;;;;1726323;28;20799;-69
2023/06/01 05:10:57;;;;;;;4.65;3.40;;;17.60;97.20;;;;;;1726409;28;20780;-68
2023/06/01 05:11:48;;;;;;;7.75;4.28;;;17.60;97.20;;;;;;1726763;28;20484;-68
2023/06/01 05:12:40;;;;;;;8.60;3.27;;;17.60;97.20;;;;;;1727017;28;20207;-69
2023/06/01 05:13:30;;;;;;;4.07;3.60;;;17.60;97.20;;;;;;1726744;28;20200;-68
2023/06/01 05:14:22;;;;;;;5.70;3.47;;;17.60;97.20;;;;;;1726872;28;20196;-68
2023/06/01 05:15:13;;;;;;;5.30;3.70;;;17.70;97.20;;;;;;1722850;28;20213;-68
2023/06/01 05:16:08;;;;;;;9.35;3.40;;;17.70;97.20;;;;;;1723489;28;20244;-68
2023/06/01 05:17:00;;;;;;;6.20;3.67;;;17.70;97.20;;;;;;1726790;28;20204;-68
2023/06/01 05:17:51;;;;;;;5.38;3.80;;;17.70;97.20;;;;;;1726942;28;20266;-68
2023/06/01 05:18:42;;;;;;;4.53;3.50;;;17.80;97.20;;;;;;1726974;28;20208;-68
2023/06/01 05:19:34;;;;;;;6.60;4.50;;;17.80;97.20;;;;;;1727016;28;20200;-68
2023/06/01 05:20:25;;;;;;;5.53;3.60;;;17.80;97.20;;;;;;1726744;28;20211;-68
2023/06/01 05:21:16;;;;;;;6.17;4.00;;;17.80;97.20;;;;;;1726907;28;20679;-69
2023/06/01 05:22:07;;;;;;;5.38;3.75;;;17.90;97.20;;;;;;1727053;28;20203;-68
2023/06/01 05:22:59;;;;;;;4.10;3.40;;;17.90;97.20;;;;;;1727062;28;20211;-68
2023/06/01 05:23:49;;;;;;;4.22;3.80;;;17.90;97.20;;;;;;1727130;28;20204;-68
2023/06/01 05:24:41;;;;;;;6.00;3.80;;;17.90;97.20;;;;;;1727036;28;20295;-69
2023/06/01 05:25:32;;;;;;;4.82;3.58;;;17.90;97.20;;;;;;1727131;28;20235;-69
2023/06/01 05:26:23;;;;;;;7.10;3.70;;;18.00;97.20;;;;;;1726077;28;20674;-68
2023/06/01 05:27:15;;;;;;;5.43;3.90;;;18.00;97.20;;;;;;1726987;28;20204;-68
2023/06/01 05:28:07;;;;;;;6.10;3.40;;;18.00;97.20;;;;;;1727105;28;20223;-68
2023/06/01 05:28:58;;;;;;;6.35;3.70;;;18.00;97.20;;;;;;1727013;28;20291;-68
2023/06/01 05:29:50;;;;;;;4.27;3.30;;;18.00;97.20;;;;;;1727243;28;20204;-68
2023/06/01 05:30:41;;;;;;;6.13;3.70;;;18.10;97.20;;;;;;1726354;28;20247;-68
2023/06/01 05:31:36;;;;;;;9.18;4.10;;;18.10;97.20;;;;;;1727454;28;20196;-68
2023/06/01 05:32:27;;;;;;;7.18;3.58;;;18.10;97.20;;;;;;1728556;28;20671;-68
2023/06/01 05:33:18;;;;;;;4.85;3.60;;;18.10;97.20;;;;;;1730624;28;20205;-69
2023/06/01 05:34:09;;;;;;;5.40;3.80;;;18.10;97.20;;;;;;1732798;28;20214;-68
2023/06/01 05:35:01;;;;;;;5.23;3.43;;;18.20;97.20;;;;;;1728319;28;20204;-68
2023/06/01 05:35:52;;;;;;;5.70;3.30;;;18.20;97.20;;;;;;1723236;28;20578;-68
2023/06/01 05:36:44;;;;;;;6.40;3.60;;;18.30;97.20;;;;;;1724730;28;20196;-68
2023/06/01 05:37:35;;;;;;;9.60;4.47;;;18.30;97.20;;;;;;1728119;28;20236;-68
2023/06/01 05:38:26;;;;;;;9.40;3.97;;;18.30;97.20;;;;;;1728228;28;20208;-68
2023/06/01 05:39:17;;;;;;;5.63;4.43;;;18.40;97.20;;;;;;1728371;28;20714;-68
2023/06/01 05:40:10;;;;;;;8.23;3.70;;;18.40;97.20;;;;;;1728064;28;20557;-68
2023/06/01 05:41:00;;;;;;;4.72;4.22;;;18.40;97.20;;;;;;1727433;28;20267;-68
2023/06/01 05:41:52;;;;;;;6.80;4.00;;;18.50;97.20;;;;;;1725006;28;20195;-68
2023/06/01 05:42:44;;;;;;;7.47;3.90;;;18.50;97.20;;;;;;1728263;28;20660;-68
2023/06/01 05:43:36;;;;;;;5.33;4.07;;;18.50;97.20;;;;;;1728349;28;20664;-69
2023/06/01 05:44:27;;;;;;;4.57;3.58;;;18.50;97.20;;;;;;1728389;28;20212;-68
2023/06/01 05:45:19;;;;;;;6.00;4.13;;;18.60;97.20;;;;;;1728410;28;20211;-68
2023/06/01 05:46:09;;;;;;;7.00;3.55;;;18.60;97.20;;;;;;1720918;28;20332;-68
2023/06/01 05:47:02;;;;;;;6.10;3.50;;;18.70;97.20;;;;;;1721548;28;20226;-68
2023/06/01 05:47:53;;;;;;;6.75;3.75;;;18.70;97.20;;;;;;1727271;28;20211;-68
2023/06/01 05:48:45;;;;;;;6.67;4.20;;;18.70;97.20;;;;;;1728319;28;20215;-68
2023/06/01 05:49:36;;;;;;;4.25;3.40;;;18.80;97.20;;;;;;1727973;28;20204;-68
2023/06/01 05:50:27;;;;;;;6.70;3.50;;;18.80;97.20;;;;;;1728140;28;20192;-68
2023/06/01 05:54:03;;;;;;;6.63;4.20;;;18.90;97.20;;;;;;1732113;28;20238;-69
2023/06/01 05:54:54;;;;;;;10.75;4.65;;;18.90;97.20;;;;;;1733292;28;20587;-68
2023/06/01 05:55:46;;;;;;;6.93;3.70;;;19.00;97.20;;;;;;1735059;28;20534;-70
2023/06/01 05:56:37;;;;;;;35.65;5.65;;;19.00;97.20;;;;;;1732445;28;20248;-69
2023/06/01 05:57:29;;;;;;;28.43;4.87;;;19.10;97.20;;;;;;1728695;28;20208;-69
2023/06/01 05:58:20;;;;;;;38.25;4.95;;;19.10;97.20;;;;;;1731906;28;20668;-69
2023/06/01 05:59:11;;;;;;;12.43;5.47;;;19.20;97.20;;;;;;1728849;28;20589;-69
2023/06/01 06:00:07;;;;;;;8.50;4.00;;;19.20;97.20;;;;;;1741589;28;20860;-69
2023/06/01 06:01:00;;;;;;;7.95;3.90;;;19.20;97.20;;;;;;1742017;28;20708;-70
2023/06/01 06:01:51;;;;;;;13.85;4.70;;;19.30;97.20;;;;;;1739066;28;20226;-69
2023/06/01 06:02:44;;;;;;;18.40;4.30;;;19.30;97.20;;;;;;1735065;28;20207;-69
2023/06/01 06:03:35;;;;;;;41.53;6.07;;;19.30;97.20;;;;;;1734918;28;20222;-69
2023/06/01 06:04:27;;;;;;;22.63;5.30;;;19.30;97.20;;;;;;1735205;28;20196;-69
2023/06/01 06:05:17;;;;;;;10.90;4.18;;;19.40;97.20;;;;;;1735018;28;20204;-69
2023/06/01 06:06:09;;;;;;;4.97;3.70;;;19.40;97.20;;;;;;1734190;28;20200;-69
2023/06/01 06:07:00;;;;;;;5.18;4.05;;;19.40;97.20;;;;;;1728075;28;20201;-69
2023/06/01 06:07:52;;;;;;;11.32;4.30;;;19.40;97.20;;;;;;1727596;28;20208;-69
2023/06/01 06:08:43;;;;;;;9.52;4.22;;;19.50;97.20;;;;;;1727694;28;20663;-69
2023/06/01 06:09:35;;;;;;;13.60;4.73;;;19.50;97.20;;;;;;1727591;28;20708;-69
2023/06/01 06:10:25;;;;;;;11.85;4.70;;;19.50;97.20;;;;;;1727834;28;20209;-69
2023/06/01 06:11:17;;;;;;;9.33;4.57;;;19.50;97.20;;;;;;1727499;28;20232;-69
2023/06/01 06:12:08;;;;;;;11.60;4.20;;;19.60;97.20;;;;;;1726298;28;20588;-69
2023/06/01 06:13:00;;;;;;;7.13;4.13;;;19.60;97.20;;;;;;1727395;28;20293;-69
2023/06/01 06:13:51;;;;;;;22.42;5.95;;;19.60;97.20;;;;;;1727962;28;20833;-69
2023/06/01 06:14:42;;;;;;;28.80;5.40;;;19.70;97.20;;;;;;1727807;28;20251;-68
2023/06/01 06:15:33;;;;;;;17.40;4.85;;;19.70;97.20;;;;;;1727727;28;20212;-70
2023/06/01 06:16:25;;;;;;;5.73;4.30;;;19.70;97.20;;;;;;1727712;28;20224;-69
2023/06/01 06:17:16;;;;;;;17.30;5.45;;;19.80;97.20;;;;;;1728224;28;20443;-69
2023/06/01 06:18:09;;;;;;;11.53;5.53;;;19.80;97.20;;;;;;1728289;28;20193;-69
2023/06/01 06:18:59;;;;;;;12.02;4.75;;;19.80;97.20;;;;;;1728187;28;20227;-69
2023/06/01 06:19:51;;;;;;;19.43;5.07;;;19.90;97.20;;;;;;1728386;28;20200;-69
2023/06/01 06:20:42;;;;;;;14.65;5.05;;;19.90;97.20;;;;;;1728207;28;20449;-70
2023/06/01 06:21:33;;;;;;;16.03;4.60;;;19.90;97.20;;;;;;1728114;28;20205;-69
2023/06/01 06:22:24;;;;;;;6.20;3.97;;;20.00;97.20;;;;;;1727063;28;20699;-69
2023/06/01 06:23:16;;;;;;;14.47;4.50;;;20.00;97.20;;;;;;1727968;28;20562;-69
2023/06/01 06:24:07;;;;;;;13.88;4.93;;;20.00;97.20;;;;;;1728088;28;20212;-68
2023/06/01 06:24:59;;;;;;;10.20;4.40;;;20.10;97.20;;;;;;1728122;28;20210;-69
2023/06/01 06:25:50;;;;;;;6.40;3.85;;;20.10;97.20;;;;;;1728160;28;20816;-68
2023/06/01 06:26:41;;;;;;;6.70;3.97;;;20.10;97.20;;;;;;1728097;28;20300;-69
2023/06/01 06:27:32;;;;;;;6.75;4.13;;;20.10;97.20;;;;;;1728144;28;20451;-69
2023/06/01 06:28:24;;;;;;;6.60;4.40;;;20.10;97.20;;;;;;1728124;28;20205;-69
2023/06/01 06:29:15;;;;;;;4.57;4.05;;;20.10;97.20;;;;;;1728047;28;20266;-69
2023/06/01 06:30:08;;;;;;;9.57;4.63;;;20.10;97.20;;;;;;1727542;28;20192;-68
2023/06/01 06:30:59;;;;;;;19.55;5.25;;;20.10;97.20;;;;;;1728103;28;20193;-69
2023/06/01 06:31:50;;;;;;;11.80;4.30;;;20.10;97.20;;;;;;1727457;28;20258;-71
2023/06/01 06:32:41;;;;;;;25.10;6.20;;;20.10;97.20;;;;;;1728070;28;20443;-68
2023/06/01 06:33:36;;;;;;;14.80;4.70;;;20.20;97.20;;;;;;1727695;28;20204;-68
2023/06/01 06:34:33;;;;;;;14.68;5.30;;;20.20;97.20;;;;;;1727656;28;20664;-69
2023/06/01 06:35:25;;;;;;;41.97;7.28;;;20.20;97.20;;;;;;1727667;28;20255;-69
2023/06/01 06:36:16;;;;;;;37.97;8.10;;;20.30;97.20;;;;;;1727374;28;20733;-69
2023/06/01 06:37:08;;;;;;;21.83;7.20;;;20.30;97.20;;;;;;1727361;28;20587;-68
2023/06/01 06:37:59;;;;;;;16.52;5.75;;;20.30;97.20;;;;;;1727413;28;20458;-72
2023/06/01 06:38:50;;;;;;;16.90;4.87;;;20.40;97.20;;;;;;1726640;28;20205;-69
2023/06/01 06:39:41;;;;;;;22.42;6.18;;;20.40;97.20;;;;;;1727341;28;20447;-68
2023/06/01 06:40:33;;;;;;;27.90;6.70;;;20.40;97.20;;;;;;1727773;28;20204;-68
2023/06/01 06:41:24;;;;;;;15.95;5.25;;;20.50;97.20;;;;;;1727747;28;20204;-71
2023/06/01 06:42:16;;;;;;;8.80;4.65;;;20.50;97.20;;;;;;1727021;28;20251;-71
2023/06/01 06:43:06;;;;;;;42.42;6.85;;;20.50;97.20;;;;;;1727873;28;20235;-69
2023/06/01 06:43:58;;;;;;;12.47;6.63;;;20.60;97.20;;;;;;1727725;28;20204;-69
2023/06/01 06:44:49;;;;;;;14.50;5.70;;;20.60;97.20;;;;;;1727704;28;20201;-69
2023/06/01 06:45:41;;;;;;;10.07;4.60;;;20.60;97.20;;;;;;1727506;28;20200;-69
2023/06/01 06:46:31;;;;;;;10.18;5.65;;;20.70;97.20;;;;;;1727682;28;20232;-68
2023/06/01 06:47:24;;;;;;;5.43;4.47;;;20.70;97.20;;;;;;1727211;28;20207;-69
2023/06/01 06:48:15;;;;;;;16.73;5.90;;;20.70;97.20;;;;;;1727517;28;20258;-70
2023/06/01 06:49:09;;;;;;;29.30;7.03;;;20.70;97.20;;;;;;1727585;28;20642;-68
2023/06/01 06:50:00;;;;;;;10.32;5.18;;;20.70;97.20;;;;;;1727536;28;20200;-69
2023/06/01 06:50:52;;;;;;;28.20;6.55;;;20.70;97.20;;;;;;1727439;28;20196;-68
2023/06/01 06:51:43;;;;;;;22.20;6.45;;;20.80;97.20;;;;;;1727362;28;20205;-71
2023/06/01 06:52:35;;;;;;;8.97;4.60;;;20.80;97.20;;;;;;1728039;28;20204;-70
2023/06/01 06:53:25;;;;;;;8.07;4.60;;;20.80;97.20;;;;;;1728044;28;20200;-69
2023/06/01 06:54:17;;;;;;;12.80;5.27;;;20.90;97.20;;;;;;1728003;28;20193;-69
2023/06/01 06:55:08;;;;;;;26.73;6.35;;;20.90;97.20;;;;;;1728150;28;20228;-69
2023/06/01 06:56:00;;;;;;;21.70;5.70;;;20.90;97.20;;;;;;1728123;28;20197;-69
2023/06/01 06:56:51;;;;;;;15.95;5.78;;;20.90;97.20;;;;;;1727903;28;20220;-69
2023/06/01 06:57:43;;;;;;;23.55;6.03;;;20.90;97.20;;;;;;1728088;28;20208;-69
2023/06/01 06:58:34;;;;;;;29.23;7.53;;;21.00;97.20;;;;;;1728100;28;20204;-69
2023/06/01 06:59:25;;;;;;;27.20;6.40;;;21.00;97.20;;;;;;1728210;28;20201;-69
2023/06/01 07:00:18;;;;;;;27.77;6.45;;;21.10;97.20;;;;;;1728127;28;20474;-69
2023/06/01 07:01:10;;;;;;;30.98;6.45;;;21.10;97.20;;;;;;1728159;28;20275;-69
2023/06/01 07:02:01;;;;;;;17.85;6.00;;;21.10;97.20;;;;;;1727654;28;20220;-69
2023/06/01 07:02:52;;;;;;;27.37;5.57;;;21.20;97.20;;;;;;1728211;28;20684;-69
2023/06/01 07:03:43;;;;;;;32.47;4.85;;;21.20;97.20;;;;;;1727997;28;20562;-70
2023/06/01 07:04:36;;;;;;;38.37;6.57;;;21.30;97.20;;;;;;1728145;28;20667;-69
2023/06/01 07:05:27;;;;;;;22.95;5.60;;;21.30;97.20;;;;;;1727793;28;20727;-70
2023/06/01 07:06:20;;;;;;;7.60;4.57;;;21.30;97.20;;;;;;1727822;28;20699;-70
2023/06/01 07:07:10;;;;;;;8.48;4.43;;;21.30;97.20;;;;;;1728117;28;20287;-69
2023/06/01 07:08:02;;;;;;;14.50;4.70;;;21.30;97.20;;;;;;1728023;28;20258;-68
2023/06/01 07:08:53;;;;;;;11.02;4.25;;;21.30;97.20;;;;;;1728117;28;20212;-68
2023/06/01 07:09:44;;;;;;;49.27;8.10;;;21.30;97.20;;;;;;1728084;28;20205;-70
2023/06/01 07:10:35;;;;;;;69.38;8.13;;;21.30;97.20;;;;;;1727773;28;20204;-69
2023/06/01 07:11:28;;;;;;;94.83;11.67;;;21.30;97.20;;;;;;1728211;28;20258;-69
2023/06/01 07:12:18;;;;;;;18.85;5.10;;;21.40;97.20;;;;;;1727657;28;20251;-69
2023/06/01 07:13:10;;;;;;;16.10;5.57;;;21.40;97.20;;;;;;1728098;28;20204;-69
2023/06/01 07:14:01;;;;;;;38.58;6.40;;;21.50;97.20;;;;;;1727907;28;20209;-69
2023/06/01 07:14:53;;;;;;;11.00;4.70;;;21.50;97.20;;;;;;1728052;28;20208;-69
2023/06/01 07:15:43;;;;;;;10.73;4.65;;;21.50;97.20;;;;;;1728058;28;20232;-68
2023/06/01 07:16:35;;;;;;;12.13;4.90;;;21.50;97.20;;;;;;1727976;28;20206;-69
2023/06/01 07:17:26;;;;;;;30.67;6.32;;;21.50;97.20;;;;;;1728010;28;20211;-69
2023/06/01 07:18:17;;;;;;;33.60;8.07;;;21.60;97.20;;;;;;1728039;28;20271;-68
2023/06/01 07:19:08;;;;;;;16.35;5.47;;;21.60;97.20;;;;;;1728083;28;20228;-69
2023/06/01 07:20:04;;;;;;;15.70;5.00;;;21.60;97.20;;;;;;1728043;28;20212;-68
2023/06/01 07:20:55;;;;;;;21.00;5.80;;;21.60;97.20;;;;;;1727776;28;20258;-69
2023/06/01 07:21:47;;;;;;;15.23;5.40;;;21.60;97.20;;;;;;1727829;28;20254;-69
2023/06/01 07:22:38;;;;;;;14.88;5.25;;;21.60;97.20;;;;;;1727867;28;20466;-69
2023/06/01 07:23:30;;;;;;;26.83;6.25;;;21.70;97.20;;;;;;1728031;28;20633;-69
2023/06/01 07:24:21;;;;;;;35.45;7.70;;;21.70;97.20;;;;;;1727980;28;20817;-69
2023/06/01 07:25:13;;;;;;;40.10;8.03;;;21.80;97.20;;;;;;1728098;28;20196;-69
2023/06/01 07:26:04;;;;;;;8.43;5.05;;;21.80;97.20;;;;;;1727911;28;20201;-69
2023/06/01 07:26:57;;;;;;;11.35;4.80;;;21.90;97.20;;;;;;1727974;28;20192;-69
2023/06/01 07:27:48;;;;;;;52.70;10.25;;;21.90;97.20;;;;;;1727934;28;20205;-69
2023/06/01 07:28:41;;;;;;;35.73;6.93;;;22.00;97.20;;;;;;1727914;28;20216;-69
2023/06/01 07:29:32;;;;;;;34.03;6.45;;;22.00;97.20;;;;;;1727971;28;20208;-70
2023/06/01 07:30:24;;;;;;;79.40;10.32;;;22.00;97.20;;;;;;1727659;28;20679;-69
2023/06/01 07:31:15;;;;;;;108.30;14.80;;;22.00;97.20;;;;;;1727861;28;20215;-69
2023/06/01 07:32:07;;;;;;;78.60;10.65;;;22.10;97.20;;;;;;1727661;28;20252;-70
2023/06/01 07:32:58;;;;;;;106.63;14.35;;;22.10;97.20;;;;;;1727830;28;20215;-69
2023/06/01 07:33:51;;;;;;;29.17;5.97;;;22.10;97.20;;;;;;1727870;28;20192;-70
2023/06/01 07:34:42;;;;;;;27.77;6.03;;;22.20;97.20;;;;;;1727807;28;20239;-69
2023/06/01 07:35:35;;;;;;;13.82;4.90;;;22.20;97.20;;;;;;1727885;28;20583;-69
2023/06/01 07:36:26;;;;;;;21.40;6.13;;;22.30;97.20;;;;;;1727864;28;20552;-69
2023/06/01 07:37:21;;;;;;;36.27;7.20;;;22.30;97.20;;;;;;1727862;28;20672;-70
2023/06/01 07:38:12;;;;;;;41.13;8.23;;;22.40;97.20;;;;;;1728062;28;20667;-69
2023/06/01 07:39:06;;;;;;;110.27;16.80;;;22.40;97.20;;;;;;1727864;28;20625;-69
2023/06/01 07:39:57;;;;;;;97.32;12.27;;;22.40;97.20;;;;;;1727838;28;20216;-70
2023/06/01 07:40:48;;;;;;;37.53;8.80;;;22.50;97.20;;;;;;1727710;28;20247;-69
2023/06/01 07:41:39;;;;;;;70.28;9.80;;;22.60;97.20;;;;;;1727778;28;20571;-69
2023/06/01 07:42:31;;;;;;;33.07;7.40;;;22.60;97.20;;;;;;1727611;28;20224;-68
2023/06/01 07:43:21;;;;;;;32.90;7.28;;;22.70;97.20;;;;;;1727730;28;20443;-69
2023/06/01 07:44:18;;;;;;;42.60;8.80;;;22.70;97.20;;;;;;1727903;28;20204;-69
2023/06/01 07:45:10;;;;;;;30.48;7.00;;;22.80;97.20;;;;;;1727913;28;20200;-70
2023/06/01 07:46:02;;;;;;;56.70;10.35;;;22.80;97.20;;;;;;1727794;28;20259;-69
2023/06/01 07:46:53;;;;;;;44.20;8.25;;;22.90;97.20;;;;;;1727867;28;20208;-69
2023/06/01 07:47:45;;;;;;;59.20;9.17;;;22.90;97.20;;;;;;1728006;28;20204;-68
2023/06/01 07:48:37;;;;;;;75.28;10.02;;;23.00;97.20;;;;;;1727892;28;20213;-69
2023/06/01 07:49:29;;;;;;;72.78;9.50;;;23.00;97.20;;;;;;1727879;28;20192;-69
2023/06/01 07:50:20;;;;;;;27.63;7.13;;;23.10;97.20;;;;;;1727466;28;20204;-69
2023/06/01 07:51:13;;;;;;;21.37;6.80;;;23.10;97.20;;;;;;1727887;28;20196;-69
2023/06/01 07:52:05;;;;;;;7.40;4.60;;;23.20;97.20;;;;;;1727424;28;20830;-69
2023/06/01 07:52:57;;;;;;;6.97;4.65;;;23.20;97.20;;;;;;1727738;28;20211;-68
2023/06/01 07:53:48;;;;;;;7.03;4.35;;;23.30;97.20;;;;;;1727252;28;20201;-69
2023/06/01 07:54:39;;;;;;;16.70;5.50;;;23.30;97.20;;;;;;1727142;28;20208;-69
2023/06/01 07:55:30;;;;;;;21.35;5.97;;;23.30;97.20;;;;;;1727778;28;20219;-68
2023/06/01 07:56:26;;;;;;;12.67;5.00;;;23.40;97.20;;;;;;1727720;28;20207;-70
2023/06/01 07:57:17;;;;;;;21.48;5.47;;;23.40;97.20;;;;;;1727745;28;20229;-68
2023/06/01 07:58:09;;;;;;;21.13;5.28;;;23.50;97.20;;;;;;1727880;28;20687;-68
2023/06/01 07:58:59;;;;;;;17.95;5.55;;;23.50;97.20;;;;;;1727718;28;20207;-69
2023/06/01 07:59:51;;;;;;;8.37;4.27;;;23.60;97.20;;;;;;1727774;28;20196;-69
2023/06/01 08:00:42;;;;;;;23.05;5.78;;;23.60;97.20;;;;;;1727422;28;20537;-70
2023/06/01 08:01:35;;;;;;;22.40;6.32;;;23.70;97.20;;;;;;1727756;28;20204;-70
2023/06/01 08:02:26;;;;;;;20.38;7.30;;;23.70;97.20;;;;;;1727430;28;20715;-70
2023/06/01 08:03:20;;;;;;;15.70;5.30;;;23.70;97.20;;;;;;1727708;28;20682;-69
2023/06/01 08:04:11;;;;;;;10.50;4.95;;;23.80;97.20;;;;;;1727778;28;21018;-69
2023/06/01 08:05:03;;;;;;;21.57;6.53;;;23.80;97.20;;;;;;1727690;28;20605;-69
2023/06/01 08:05:57;;;;;;;24.77;6.38;;;23.80;97.20;;;;;;1727717;28;20204;-69
2023/06/01 08:06:52;;;;;;;19.75;6.43;;;23.90;97.20;;;;;;1727715;28;20212;-69
2023/06/01 08:07:45;;;;;;;15.52;6.20;;;23.90;97.20;;;;;;1727696;28;20239;-69
2023/06/01 08:08:36;;;;;;;17.08;6.32;;;23.90;97.20;;;;;;1727674;28;20205;-69
2023/06/01 08:09:28;;;;;;;7.27;4.47;;;23.90;97.20;;;;;;1727761;28;20192;-69
2023/06/01 08:10:19;;;;;;;11.35;5.10;;;23.90;97.20;;;;;;1727473;28;20446;-70
2023/06/01 08:11:11;;;;;;;9.33;4.63;;;23.90;97.20;;;;;;1727688;28;20671;-70
2023/06/01 08:12:01;;;;;;;10.60;5.55;;;24.00;97.20;;;;;;1727227;28;20472;-70
2023/06/01 08:12:55;;;;;;;11.47;5.13;;;24.00;97.20;;;;;;1727422;28;20197;-69
2023/06/01 08:13:46;;;;;;;8.32;4.80;;;24.10;97.20;;;;;;1727562;28;20201;-68
2023/06/01 08:14:38;;;;;;;7.63;4.80;;;24.10;97.20;;;;;;1727672;28;20208;-69
2023/06/01 08:15:29;;;;;;;8.30;5.10;;;24.10;97.20;;;;;;1727698;28;20224;-69
2023/06/01 08:16:20;;;;;;;16.70;5.50;;;24.20;97.20;;;;;;1727649;28;20663;-69
2023/06/01 08:17:11;;;;;;;18.50;6.43;;;24.20;97.20;;;;;;1727553;28;20726;-69
2023/06/01 08:18:03;;;;;;;21.43;5.80;;;24.20;97.20;;;;;;1727600;28;20682;-69
2023/06/01 08:18:55;;;;;;;14.70;6.15;;;24.30;97.20;;;;;;1727611;28;20200;-69
2023/06/01 08:19:47;;;;;;;21.17;6.20;;;24.30;97.20;;;;;;1727715;28;20200;-69
2023/06/01 08:20:38;;;;;;;7.60;5.57;;;24.40;97.20;;;;;;1727398;28;20795;-69
2023/06/01 08:21:29;;;;;;;9.07;5.67;;;24.40;97.20;;;;;;1727558;28;20603;-69
2023/06/01 08:22:22;;;;;;;8.02;5.07;;;24.40;97.20;;;;;;1727173;28;20223;-69
2023/06/01 08:23:16;;;;;;;8.15;5.50;;;24.50;97.20;;;;;;1727661;28;20676;-69
2023/06/01 08:24:08;;;;;;;9.50;5.00;;;24.50;97.20;;;;;;1727682;28;20228;-69
2023/06/01 08:25:00;;;;;;;13.33;5.83;;;24.50;97.20;;;;;;1727697;28;20546;-69
2023/06/01 08:25:51;;;;;;;10.15;5.30;;;24.50;97.20;;;;;;1727699;28;20993;-69
2023/06/01 08:26:42;;;;;;;17.07;5.57;;;24.60;97.20;;;;;;1727565;28;20598;-68
2023/06/01 08:27:33;;;;;;;13.35;5.35;;;24.60;97.20;;;;;;1727612;28;20197;-69
2023/06/01 08:28:25;;;;;;;8.70;5.47;;;24.60;97.20;;;;;;1727550;28;20196;-70
2023/06/01 08:29:16;;;;;;;11.35;5.45;;;24.70;97.20;;;;;;1727730;28;20204;-68
2023/06/01 08:30:08;;;;;;;9.57;5.17;;;24.70;97.20;;;;;;1727571;28;20203;-69
2023/06/01 08:30:59;;;;;;;9.53;5.27;;;24.80;97.20;;;;;;1727263;28;20199;-69
2023/06/01 08:31:52;;;;;;;6.90;4.95;;;24.80;97.20;;;;;;1727195;28;20447;-69
2023/06/01 08:32:43;;;;;;;8.48;5.00;;;24.90;97.20;;;;;;1727696;28;20208;-68
2023/06/01 08:33:35;;;;;;;11.13;5.10;;;24.90;97.20;;;;;;1727447;28;20196;-69
2023/06/01 08:34:25;;;;;;;9.00;5.65;;;25.00;97.20;;;;;;1727482;28;20203;-70
2023/06/01 08:35:18;;;;;;;16.73;5.10;;;25.00;97.20;;;;;;1727554;28;20204;-70
2023/06/01 08:36:09;;;;;;;8.37;5.27;;;25.10;97.20;;;;;;1727655;28;20204;-70
2023/06/01 08:37:01;;;;;;;8.67;4.97;;;25.10;97.20;;;;;;1727430;28;20450;-70
2023/06/01 08:37:53;;;;;;;13.48;6.07;;;25.10;97.20;;;;;;1727651;28;20231;-69
2023/06/01 08:38:45;;;;;;;13.67;6.20;;;25.10;97.20;;;;;;1727545;28;20284;-70
2023/06/01 08:39:35;;;;;;;15.82;6.15;;;25.20;97.20;;;;;;1727516;28;20519;-70
2023/06/01 08:40:27;;;;;;;16.37;6.17;;;25.20;97.20;;;;;;1727168;28;20239;-69
2023/06/01 08:41:24;;;;;;;15.95;5.70;;;25.30;97.20;;;;;;1720676;28;20205;-69
2023/06/01 08:42:30;;;;;;;11.55;5.13;;;25.30;97.20;;;;;;1720455;28;20225;-70
2023/06/01 08:43:22;;;;;;;12.60;5.53;;;25.40;97.20;;;;;;1720651;28;20209;-69
2023/06/01 08:44:17;;;;;;;14.38;6.05;;;25.40;97.20;;;;;;1720724;28;20519;-69
2023/06/01 08:45:09;;;;;;;13.83;6.00;;;25.50;97.20;;;;;;1720901;28;20574;-69
2023/06/01 08:46:01;;;;;;;10.60;6.03;;;25.50;97.20;;;;;;1720730;28;20444;-70
2023/06/01 08:46:52;;;;;;;8.60;5.43;;;25.60;97.20;;;;;;1720773;28;20205;-69
2023/06/01 08:47:46;;;;;;;7.13;5.27;;;25.60;97.20;;;;;;1720642;28;20445;-69
2023/06/01 08:48:39;;;;;;;10.73;5.53;;;25.60;97.20;;;;;;1720636;28;20468;-69
2023/06/01 08:49:32;;;;;;;14.15;5.80;;;25.60;97.20;;;;;;1720782;28;20444;-69
2023/06/01 08:50:23;;;;;;;13.30;6.28;;;25.70;97.20;;;;;;1720707;28;20236;-69
2023/06/01 08:51:15;;;;;;;19.00;6.13;;;25.70;97.20;;;;;;1727050;28;20196;-69
2023/06/01 08:52:10;;;;;;;22.87;6.03;;;25.80;97.20;;;;;;1727052;28;20239;-70
2023/06/01 08:53:05;;;;;;;27.45;7.03;;;25.90;97.20;;;;;;1727492;28;20497;-69
2023/06/01 08:53:59;;;;;;;12.18;4.80;;;25.90;97.20;;;;;;1727380;28;20227;-69
2023/06/01 08:54:51;;;;;;;16.02;6.03;;;26.00;97.20;;;;;;1727443;28;20205;-70
2023/06/01 08:55:41;;;;;;;26.40;8.18;;;26.00;97.20;;;;;;1727394;28;20236;-70
2023/06/01 08:56:33;;;;;;;24.80;7.70;;;26.10;97.20;;;;;;1727424;28;20196;-69
2023/06/01 08:57:24;;;;;;;23.13;7.57;;;26.10;97.20;;;;;;1727337;28;20454;-70
2023/06/01 08:58:17;;;;;;;9.03;5.90;;;26.20;97.20;;;;;;1727408;28;20201;-70
2023/06/01 08:59:09;;;;;;;4.90;4.40;;;26.20;97.20;;;;;;1727452;28;20820;-69
2023/06/01 09:00:01;;;;;;;12.70;5.93;;;26.20;97.20;;;;;;1727448;28;20521;-70
2023/06/01 09:00:53;;;;;;;19.77;7.20;;;26.20;97.20;;;;;;1727118;28;20466;-69
2023/06/01 09:01:46;;;;;;;25.15;8.23;;;26.30;97.20;;;;;;1727182;28;20453;-69
2023/06/01 09:02:37;;;;;;;21.10;6.65;;;26.30;97.20;;;;;;1727147;28;20213;-69
2023/06/01 09:03:29;;;;;;;10.00;6.80;;;26.30;97.20;;;;;;1727279;28;20195;-69
2023/06/01 09:04:20;;;;;;;15.27;7.27;;;26.30;97.20;;;;;;1727430;28;20572;-70
2023/06/01 09:05:12;;;;;;;12.10;7.07;;;26.40;97.20;;;;;;1727280;28;20877;-69
2023/06/01 09:06:04;;;;;;;9.43;6.27;;;26.40;97.20;;;;;;1727413;28;20209;-69
2023/06/01 09:06:55;;;;;;;23.45;8.20;;;26.40;97.20;;;;;;1727352;28;20861;-70
2023/06/01 09:07:48;;;;;;;11.43;6.50;;;26.40;97.20;;;;;;1727373;28;20235;-70
2023/06/01 09:08:42;;;;;;;16.23;7.10;;;26.40;97.20;;;;;;1727358;28;20947;-69
2023/06/01 09:09:33;;;;;;;11.95;7.00;;;26.40;97.20;;;;;;1727343;28;20467;-70
2023/06/01 09:10:26;;;;;;;8.00;5.30;;;26.50;97.20;;;;;;1727352;28;20197;-70
2023/06/01 09:11:17;;;;;;;10.70;5.97;;;26.50;97.20;;;;;;1727054;28;20554;-70
2023/06/01 09:12:20;;;;;;;16.47;5.40;;;26.50;97.20;;;;;;1727077;28;20482;-72
2023/06/01 09:13:11;;;;;;;22.20;6.60;;;26.50;97.20;;;;;;1727369;28;20447;-71
2023/06/01 09:14:18;;;;;;;10.67;6.00;;;26.60;97.20;;;;;;1727251;28;20447;-72
2023/06/01 09:15:12;;;;;;;15.67;6.00;;;26.70;97.20;;;;;;1727460;28;20466;-72
2023/06/01 09:16:03;;;;;;;10.20;5.93;;;26.70;97.20;;;;;;1727398;28;20447;-71
2023/06/01 09:16:55;;;;;;;13.13;5.90;;;26.80;97.20;;;;;;1727251;28;20447;-71
2023/06/01 09:17:48;;;;;;;10.00;5.57;;;26.90;97.20;;;;;;1727320;28;20483;-71
2023/06/01 09:18:52;;;;;;;18.75;6.68;;;26.90;97.20;;;;;;1727374;28;20867;-71
2023/06/01 09:19:44;;;;;;;17.93;7.47;;;26.90;97.20;;;;;;1727564;28;20754;-71
2023/06/01 09:20:37;;;;;;;7.87;5.27;;;26.90;97.20;;;;;;1727086;28;20493;-71
2023/06/01 09:21:28;;;;;;;11.73;6.00;;;26.90;97.20;;;;;;1727141;28;20451;-70
2023/06/01 09:22:20;;;;;;;8.10;5.77;;;27.00;97.20;;;;;;1726970;28;20529;-71
2023/06/01 09:23:11;;;;;;;8.47;5.70;;;27.00;97.20;;;;;;1727217;28;20431;-71
2023/06/01 09:24:20;;;;;;;11.30;5.80;;;27.10;97.20;;;;;;1727271;28;20470;-72
2023/06/01 09:25:12;;;;;;;10.10;4.90;;;27.10;97.20;;;;;;1727422;28;20434;-71
2023/06/01 09:26:08;;;;;;;6.40;5.13;;;27.20;97.20;;;;;;1727286;28;20435;-71
2023/06/01 09:26:59;;;;;;;15.77;6.50;;;27.20;97.20;;;;;;1727174;28;20458;-72
2023/06/01 09:27:52;;;;;;;20.27;9.88;;;27.20;97.20;;;;;;1727353;28;20491;-71
2023/06/01 09:28:54;;;;;;;9.43;6.57;;;27.30;97.20;;;;;;1727256;28;20212;-71
2023/06/01 09:29:54;;;;;;;13.03;7.97;;;27.30;97.20;;;;;;1727313;28;20447;-70
2023/06/01 09:30:45;;;;;;;6.10;5.50;;;27.30;97.20;;;;;;1727041;28;20583;-71
2023/06/01 09:31:39;;;;;;;12.33;7.67;;;27.30;97.20;;;;;;1727238;28;20688;-71